Time;durP1;ratioP1;P1;durP2;ratioP2;P2;SDS_P1;SDS_P2;PMS_P1;PMS_P2;Temp;Humidity;BMP_temperature;BMP_pressure;BME280_temperature;BME280_humidity;BME280_pressure;Samples;Min_cycle;Max_cycle;Signal;HPM_P1;HPM_P2
2021/05/01 00:00:19;;;;;;;18.97;17.43;;;23.60;71.10;;;;;;3623433;39;20488;-43
2021/05/01 00:02:46;;;;;;;18.03;16.73;;;23.60;71.10;;;;;;3631819;39;20490;-43
2021/05/01 00:05:14;;;;;;;19.20;17.80;;;23.60;71.00;;;;;;3622456;39;20484;-43
2021/05/01 00:07:41;;;;;;;19.90;18.57;;;23.50;71.00;;;;;;3631180;39;20562;-44
2021/05/01 00:10:10;;;;;;;19.27;17.97;;;23.50;71.00;;;;;;3632128;39;20484;-44
2021/05/01 00:12:40;;;;;;;18.47;16.97;;;23.60;71.10;;;;;;3632347;39;20782;-43
2021/05/01 00:15:10;;;;;;;18.03;16.73;;;23.50;71.00;;;;;;3631467;39;20571;-43
2021/05/01 00:17:44;;;;;;;19.07;17.57;;;23.50;71.00;;;;;;3609907;39;20482;-43
2021/05/01 00:20:13;;;;;;;18.03;16.83;;;23.50;71.00;;;;;;3610951;39;20525;-43
2021/05/01 00:22:41;;;;;;;17.87;16.50;;;23.50;71.00;;;;;;3610768;39;20483;-43
2021/05/01 00:25:09;;;;;;;18.57;17.37;;;23.50;71.00;;;;;;3612668;39;21103;-43
2021/05/01 00:27:37;;;;;;;18.57;17.37;;;23.50;71.10;;;;;;3611374;39;20493;-43
2021/05/01 00:30:06;;;;;;;18.23;16.90;;;23.50;71.10;;;;;;3612989;39;20467;-43
2021/05/01 00:32:33;;;;;;;16.77;15.73;;;23.50;71.00;;;;;;3609904;39;20471;-43
2021/05/01 00:35:13;;;;;;;18.50;17.30;;;23.50;71.00;;;;;;3613012;39;20475;-43
2021/05/01 00:37:39;;;;;;;18.27;16.97;;;23.50;71.10;;;;;;3608786;39;20480;-43
2021/05/01 00:40:09;;;;;;;16.87;15.67;;;23.50;71.10;;;;;;3609895;39;20489;-43
2021/05/01 00:42:37;;;;;;;17.30;16.00;;;23.50;71.10;;;;;;3612392;39;20466;-43
2021/05/01 00:45:06;;;;;;;18.10;16.80;;;23.50;71.10;;;;;;3610052;39;20515;-43
2021/05/01 00:47:34;;;;;;;17.87;16.57;;;23.50;71.10;;;;;;3609696;39;20482;-43
2021/05/01 00:50:03;;;;;;;18.70;17.40;;;23.50;71.10;;;;;;3610917;39;20487;-43
2021/05/01 00:52:34;;;;;;;17.67;16.37;;;23.50;71.00;;;;;;3610306;39;20466;-43
2021/05/01 00:55:03;;;;;;;17.67;16.47;;;23.50;71.10;;;;;;3612600;39;20523;-43
2021/05/01 00:57:30;;;;;;;16.47;15.40;;;23.50;71.10;;;;;;3611827;39;20778;-43
2021/05/01 00:59:59;;;;;;;18.73;17.40;;;23.50;71.10;;;;;;3613031;39;20551;-43
2021/05/01 01:02:28;;;;;;;17.60;16.30;;;23.50;71.10;;;;;;3614107;39;20494;-43
2021/05/01 01:04:56;;;;;;;17.63;16.37;;;23.50;71.10;;;;;;3615006;39;20501;-43
2021/05/01 01:07:24;;;;;;;17.53;16.23;;;23.50;71.00;;;;;;3612280;39;20478;-43
2021/05/01 01:09:54;;;;;;;18.60;17.30;;;23.50;71.10;;;;;;3611740;39;21122;-43
2021/05/01 01:12:23;;;;;;;16.73;15.63;;;23.50;71.10;;;;;;3611128;39;20483;-43
2021/05/01 01:14:50;;;;;;;17.47;16.37;;;23.50;71.10;;;;;;3611289;39;20561;-43
2021/05/01 01:17:18;;;;;;;17.48;16.15;;;23.50;71.10;;;;;;3619613;39;20484;-43
2021/05/01 01:19:46;;;;;;;16.97;15.77;;;23.40;71.00;;;;;;3620118;39;20227;-43
2021/05/01 01:22:15;;;;;;;16.17;15.07;;;23.50;71.20;;;;;;3621344;39;20475;-43
2021/05/01 01:24:44;;;;;;;17.40;16.13;;;23.40;71.00;;;;;;3621937;39;20876;-43
2021/05/01 01:27:14;;;;;;;17.10;15.87;;;23.50;71.10;;;;;;3622348;39;20483;-43
2021/05/01 01:29:43;;;;;;;16.93;15.73;;;23.50;71.00;;;;;;3618604;39;20478;-43
2021/05/01 01:32:12;;;;;;;18.27;16.97;;;23.50;71.00;;;;;;3621890;39;21061;-43
2021/05/01 01:34:44;;;;;;;18.20;16.90;;;23.50;71.00;;;;;;3621114;39;20515;-43
2021/05/01 01:37:13;;;;;;;17.30;16.10;;;23.50;71.10;;;;;;3620166;39;20571;-43
2021/05/01 01:39:42;;;;;;;16.77;15.67;;;23.50;71.20;;;;;;3620185;39;20487;-43
2021/05/01 01:42:10;;;;;;;17.27;16.07;;;23.40;71.00;;;;;;3622231;39;20483;-43
2021/05/01 01:44:38;;;;;;;17.93;16.63;;;23.40;71.00;;;;;;3613773;39;20914;-43
2021/05/01 01:47:06;;;;;;;15.70;14.80;;;23.40;70.90;;;;;;3621343;39;20566;-43
2021/05/01 01:49:39;;;;;;;17.67;16.57;;;23.40;70.90;;;;;;3620269;39;20862;-43
2021/05/01 01:52:06;;;;;;;17.80;16.50;;;23.40;71.00;;;;;;3621226;39;20464;-43
2021/05/01 01:54:33;;;;;;;18.03;16.83;;;23.40;71.00;;;;;;3621604;39;20889;-43
2021/05/01 01:57:04;;;;;;;18.33;17.03;;;23.40;70.90;;;;;;3621423;39;20849;-43
2021/05/01 01:59:34;;;;;;;16.80;15.70;;;23.40;70.90;;;;;;3621761;39;20492;-43
2021/05/01 02:02:01;;;;;;;17.47;16.23;;;23.40;70.90;;;;;;3620843;39;21100;-44
2021/05/01 02:04:29;;;;;;;17.43;16.20;;;23.40;70.90;;;;;;3621933;39;20488;-43
2021/05/01 02:06:56;;;;;;;16.93;15.93;;;23.40;70.90;;;;;;3630638;39;21051;-44
2021/05/01 02:09:25;;;;;;;17.17;15.97;;;23.40;70.90;;;;;;3631550;39;20523;-44
2021/05/01 02:11:52;;;;;;;17.37;16.27;;;23.40;70.90;;;;;;3630938;39;20458;-44
2021/05/01 02:14:29;;;;;;;17.47;16.27;;;23.40;71.00;;;;;;3631245;39;20474;-44
2021/05/01 02:16:56;;;;;;;18.10;16.83;;;23.40;70.90;;;;;;3630510;39;20534;-43
2021/05/01 02:19:23;;;;;;;16.97;15.87;;;23.40;70.90;;;;;;3631285;39;20478;-43
2021/05/01 02:22:01;;;;;;;16.27;15.27;;;23.40;71.00;;;;;;3629701;39;20850;-43
2021/05/01 02:24:29;;;;;;;16.70;15.50;;;23.40;70.90;;;;;;3629353;39;20544;-43
2021/05/01 02:26:56;;;;;;;16.50;15.40;;;23.40;70.90;;;;;;3630386;39;20512;-43
2021/05/01 02:29:22;;;;;;;15.50;14.50;;;23.40;71.00;;;;;;3631311;39;20478;-43
2021/05/01 02:31:54;;;;;;;15.90;14.97;;;23.40;71.00;;;;;;3630198;39;20471;-43
2021/05/01 02:34:22;;;;;;;17.03;15.93;;;23.40;71.00;;;;;;3629502;39;20473;-43
2021/05/01 02:36:49;;;;;;;17.20;16.07;;;23.40;71.00;;;;;;3632145;39;20564;-44
2021/05/01 02:39:16;;;;;;;17.27;16.07;;;23.40;71.00;;;;;;3630268;39;20558;-44
2021/05/01 02:41:45;;;;;;;17.13;16.00;;;23.30;70.90;;;;;;3632452;39;20493;-44
2021/05/01 02:44:12;;;;;;;18.13;16.93;;;23.40;71.00;;;;;;3630748;39;20475;-43
2021/05/01 02:46:39;;;;;;;17.47;16.27;;;23.30;70.90;;;;;;3629740;39;20568;-44
2021/05/01 02:49:09;;;;;;;16.60;15.50;;;23.40;70.90;;;;;;3629269;39;20510;-43
2021/05/01 02:51:35;;;;;;;16.87;15.70;;;23.30;70.90;;;;;;3631327;39;20490;-43
2021/05/01 02:54:04;;;;;;;17.60;16.50;;;23.30;70.90;;;;;;3630999;39;20470;-43
2021/05/01 02:56:31;;;;;;;16.17;15.18;;;23.30;70.90;;;;;;3609602;39;20488;-43
2021/05/01 02:59:00;;;;;;;16.67;15.67;;;23.30;70.90;;;;;;3608733;39;20480;-43
2021/05/01 03:01:31;;;;;;;16.03;15.03;;;23.30;70.90;;;;;;3608803;39;20489;-44
2021/05/01 03:04:00;;;;;;;17.10;15.93;;;23.40;71.00;;;;;;3610660;39;20519;-43
2021/05/01 03:06:29;;;;;;;16.37;15.17;;;23.40;71.00;;;;;;3611351;39;20482;-43
2021/05/01 03:08:56;;;;;;;16.07;15.07;;;23.40;71.00;;;;;;3609218;39;20489;-43
2021/05/01 03:11:23;;;;;;;16.73;15.73;;;23.40;71.00;;;;;;3611493;39;20501;-43
2021/05/01 03:13:50;;;;;;;17.00;15.80;;;23.30;70.90;;;;;;3611185;39;20506;-43
2021/05/01 03:16:21;;;;;;;17.67;16.57;;;23.30;70.90;;;;;;3611866;39;20505;-43
2021/05/01 03:18:51;;;;;;;16.77;15.67;;;23.30;70.90;;;;;;3611043;39;20476;-43
2021/05/01 03:21:19;;;;;;;16.10;15.00;;;23.40;70.90;;;;;;3610432;39;20485;-43
2021/05/01 03:23:49;;;;;;;15.87;14.97;;;23.30;70.80;;;;;;3612467;39;20494;-43
2021/05/01 03:26:18;;;;;;;17.47;16.47;;;23.30;70.80;;;;;;3608811;39;20624;-43
2021/05/01 03:28:46;;;;;;;17.30;16.07;;;23.30;70.80;;;;;;3609053;39;20477;-43
2021/05/01 03:31:17;;;;;;;17.30;15.73;;;23.40;71.00;;;;;;3608460;39;20482;-42
2021/05/01 03:33:44;;;;;;;15.83;14.83;;;23.40;71.10;;;;;;3609289;39;20476;-43
2021/05/01 03:36:12;;;;;;;16.57;15.37;;;23.30;71.10;;;;;;3610356;39;20497;-43
2021/05/01 03:38:40;;;;;;;16.73;15.53;;;23.40;71.30;;;;;;3609641;39;20483;-43
2021/05/01 03:41:14;;;;;;;16.52;15.32;;;23.40;71.30;;;;;;3611122;39;20494;-43
2021/05/01 03:43:41;;;;;;;17.57;16.27;;;23.40;71.40;;;;;;3626611;39;20246;-43
2021/05/01 03:46:09;;;;;;;16.37;15.20;;;23.40;71.30;;;;;;3630025;39;20488;-43
2021/05/01 03:48:36;;;;;;;17.03;15.87;;;23.40;71.30;;;;;;3628256;39;20476;-42
2021/05/01 03:51:04;;;;;;;16.63;15.50;;;23.40;71.40;;;;;;3629905;39;20481;-43
2021/05/01 03:53:31;;;;;;;16.47;15.37;;;23.50;71.50;;;;;;3628904;39;20480;-43
2021/05/01 03:55:59;;;;;;;17.87;16.43;;;23.50;71.50;;;;;;3621793;39;20480;-44
2021/05/01 03:58:27;;;;;;;17.17;15.97;;;23.50;71.50;;;;;;3630645;39;20483;-44
2021/05/01 04:00:57;;;;;;;17.67;16.30;;;23.60;71.60;;;;;;3630191;39;20498;-44
2021/05/01 04:03:24;;;;;;;17.03;15.83;;;23.60;71.90;;;;;;3630905;39;20503;-44
2021/05/01 04:05:54;;;;;;;16.58;15.48;;;23.60;71.60;;;;;;3631305;39;20534;-43
2021/05/01 04:08:21;;;;;;;17.00;15.53;;;23.60;71.60;;;;;;3625929;39;20277;-43
2021/05/01 04:10:49;;;;;;;16.93;15.63;;;23.70;71.60;;;;;;3628929;39;20487;-42
2021/05/01 04:13:17;;;;;;;16.00;15.00;;;23.70;71.50;;;;;;3621059;39;20908;-43
2021/05/01 04:15:45;;;;;;;16.37;15.20;;;23.80;71.50;;;;;;3631046;39;20480;-43
2021/05/01 04:18:13;;;;;;;17.60;16.33;;;23.80;71.40;;;;;;3632387;39;20527;-43
2021/05/01 04:20:41;;;;;;;15.93;15.03;;;23.80;71.40;;;;;;3629867;39;20471;-43
2021/05/01 04:23:08;;;;;;;16.17;15.27;;;23.90;71.40;;;;;;3632182;39;20486;-43
2021/05/01 04:25:37;;;;;;;15.90;15.00;;;23.90;72.00;;;;;;3631508;39;20487;-42
2021/05/01 04:28:07;;;;;;;16.00;15.00;;;23.90;71.20;;;;;;3632742;39;20474;-43
2021/05/01 04:30:37;;;;;;;16.63;15.52;;;24.00;71.20;;;;;;3629531;39;20494;-43
2021/05/01 04:33:06;;;;;;;15.97;14.97;;;24.00;71.00;;;;;;3628641;39;20250;-43
2021/05/01 04:35:34;;;;;;;16.80;15.70;;;24.00;70.80;;;;;;3630323;39;20475;-42
2021/05/01 04:38:10;;;;;;;15.83;14.83;;;24.10;70.80;;;;;;3629452;39;20482;-43
2021/05/01 04:40:48;;;;;;;15.73;14.80;;;24.20;70.80;;;;;;3629769;39;20490;-44
2021/05/01 04:43:23;;;;;;;16.63;15.40;;;24.20;70.60;;;;;;3632087;39;20492;-44
2021/05/01 04:45:55;;;;;;;16.60;15.50;;;24.20;70.50;;;;;;3629322;39;20555;-43
2021/05/01 04:48:23;;;;;;;16.20;15.10;;;24.20;70.40;;;;;;3637100;39;20573;-44
2021/05/01 04:50:50;;;;;;;16.57;15.57;;;24.30;70.30;;;;;;3636931;39;20491;-44
2021/05/01 04:53:17;;;;;;;16.40;15.33;;;24.30;70.20;;;;;;3636074;39;20471;-44
2021/05/01 04:55:48;;;;;;;15.83;14.83;;;24.30;70.10;;;;;;3630496;39;20479;-44
2021/05/01 04:58:16;;;;;;;15.60;14.53;;;24.40;70.10;;;;;;3630250;39;20476;-44
2021/05/01 05:00:43;;;;;;;16.77;15.47;;;24.40;70.00;;;;;;3633750;39;20500;-44
2021/05/01 05:03:11;;;;;;;16.50;15.20;;;24.50;70.00;;;;;;3638980;39;20487;-43
2021/05/01 05:05:48;;;;;;;15.37;14.47;;;24.50;70.00;;;;;;3637347;39;20490;-44
2021/05/01 05:08:15;;;;;;;15.80;14.60;;;24.50;69.90;;;;;;3636422;39;20710;-44
2021/05/01 05:10:42;;;;;;;15.03;14.13;;;24.50;69.80;;;;;;3636288;39;20481;-43
2021/05/01 05:13:10;;;;;;;15.37;14.40;;;24.50;69.80;;;;;;3636147;39;20472;-43
2021/05/01 05:15:37;;;;;;;14.93;14.03;;;24.60;69.80;;;;;;3625489;39;20602;-43
2021/05/01 05:18:05;;;;;;;16.50;15.50;;;24.60;69.80;;;;;;3626688;39;20712;-43
2021/05/01 05:20:33;;;;;;;15.87;14.83;;;24.60;69.70;;;;;;3626182;39;20497;-43
2021/05/01 05:23:01;;;;;;;15.53;14.50;;;24.60;69.60;;;;;;3624911;39;20477;-43
2021/05/01 05:25:30;;;;;;;14.52;13.65;;;24.60;69.50;;;;;;3625999;39;20478;-43
2021/05/01 05:27:58;;;;;;;14.98;14.10;;;24.60;69.50;;;;;;3626358;39;20221;-43
2021/05/01 05:30:26;;;;;;;15.90;14.90;;;24.60;69.50;;;;;;3625176;39;20220;-43
2021/05/01 05:32:54;;;;;;;16.40;15.20;;;24.60;69.30;;;;;;3624910;39;20515;-43
2021/05/01 05:35:21;;;;;;;14.90;14.00;;;24.60;69.40;;;;;;3625912;39;20472;-43
2021/05/01 05:37:47;;;;;;;15.57;14.57;;;24.60;69.40;;;;;;3634401;39;20487;-43
2021/05/01 05:40:16;;;;;;;14.80;14.00;;;24.60;69.40;;;;;;3625731;39;20475;-43
2021/05/01 05:42:49;;;;;;;14.03;13.17;;;24.60;69.30;;;;;;3606307;39;20494;-43
2021/05/01 05:45:24;;;;;;;15.70;14.70;;;24.60;69.40;;;;;;3599610;39;20513;-43
2021/05/01 05:47:53;;;;;;;14.40;13.60;;;24.70;69.40;;;;;;3599600;39;20475;-43
2021/05/01 05:50:21;;;;;;;16.07;15.07;;;24.70;69.30;;;;;;3598384;39;20484;-43
2021/05/01 05:52:51;;;;;;;15.63;14.33;;;24.70;69.30;;;;;;3597745;39;20736;-43
2021/05/01 05:55:21;;;;;;;14.57;13.77;;;24.70;69.80;;;;;;3605123;39;20522;-43
2021/05/01 05:57:50;;;;;;;16.87;15.73;;;24.70;69.20;;;;;;3598152;39;20569;-43
2021/05/01 06:00:20;;;;;;;15.43;14.43;;;24.70;69.20;;;;;;3594822;39;20552;-43
2021/05/01 06:02:49;;;;;;;15.23;14.23;;;24.70;69.20;;;;;;3605186;39;20496;-43
2021/05/01 06:05:22;;;;;;;15.97;14.90;;;24.70;69.20;;;;;;3602859;39;20631;-43
2021/05/01 06:07:51;;;;;;;15.30;14.30;;;24.80;69.20;;;;;;3603973;39;21238;-43
2021/05/01 06:10:24;;;;;;;14.47;13.53;;;24.80;69.10;;;;;;3600899;39;20573;-43
2021/05/01 06:12:52;;;;;;;14.83;13.93;;;24.80;69.00;;;;;;3603850;39;20493;-43
2021/05/01 06:15:25;;;;;;;15.20;14.10;;;24.80;69.00;;;;;;3603912;39;20479;-43
2021/05/01 06:17:53;;;;;;;14.80;14.00;;;24.80;69.00;;;;;;3593988;39;20881;-43
2021/05/01 06:20:20;;;;;;;14.20;13.50;;;24.80;68.90;;;;;;3594551;39;20490;-43
2021/05/01 06:22:49;;;;;;;15.33;14.40;;;24.80;68.90;;;;;;3615297;39;21245;-43
2021/05/01 06:25:16;;;;;;;15.10;14.23;;;24.80;68.80;;;;;;3621419;39;20501;-43
2021/05/01 06:27:44;;;;;;;13.70;13.00;;;24.90;68.80;;;;;;3614983;39;20478;-43
2021/05/01 06:30:12;;;;;;;14.60;13.70;;;24.90;68.90;;;;;;3609253;39;20521;-43
2021/05/01 06:32:39;;;;;;;14.83;14.03;;;24.90;68.80;;;;;;3624052;39;20558;-43
2021/05/01 06:35:08;;;;;;;14.30;13.47;;;24.90;68.80;;;;;;3624803;39;20488;-43
2021/05/01 06:37:39;;;;;;;15.10;14.10;;;24.90;68.80;;;;;;3625406;39;20696;-43
2021/05/01 06:40:11;;;;;;;13.80;13.00;;;24.90;68.80;;;;;;3624803;39;20472;-43
2021/05/01 06:42:51;;;;;;;15.40;14.50;;;24.90;68.80;;;;;;3615869;39;20232;-43
2021/05/01 06:45:19;;;;;;;15.53;14.50;;;24.90;68.80;;;;;;3623938;39;20485;-43
2021/05/01 06:47:53;;;;;;;13.88;13.02;;;24.90;68.70;;;;;;3625237;39;20474;-43
2021/05/01 06:50:23;;;;;;;15.03;14.23;;;24.90;68.80;;;;;;3623696;39;20251;-43
2021/05/01 06:52:50;;;;;;;13.87;13.10;;;24.90;68.60;;;;;;3615624;39;20829;-43
2021/05/01 06:55:24;;;;;;;15.07;14.20;;;25.00;68.60;;;;;;3621474;39;20493;-43
2021/05/01 06:57:54;;;;;;;14.20;13.30;;;25.00;68.60;;;;;;3624144;39;20478;-43
2021/05/01 07:00:22;;;;;;;14.23;13.40;;;25.00;68.60;;;;;;3623388;39;20503;-43
2021/05/01 07:02:53;;;;;;;14.20;13.30;;;25.00;68.50;;;;;;3627171;39;20500;-43
2021/05/01 07:05:21;;;;;;;14.55;13.57;;;25.00;68.50;;;;;;3634038;39;20541;-43
2021/05/01 07:07:59;;;;;;;14.63;13.77;;;25.00;68.50;;;;;;3633034;39;20239;-43
2021/05/01 07:10:36;;;;;;;14.17;13.17;;;25.00;68.40;;;;;;3633559;39;20545;-43
2021/05/01 07:13:14;;;;;;;14.03;13.20;;;25.00;68.40;;;;;;3626507;39;21125;-43
2021/05/01 07:15:44;;;;;;;15.07;13.97;;;25.00;68.30;;;;;;3623146;39;20573;-43
2021/05/01 07:18:17;;;;;;;14.20;13.40;;;25.00;68.30;;;;;;3625176;39;20483;-43
2021/05/01 07:20:45;;;;;;;15.30;14.30;;;25.00;68.40;;;;;;3626352;39;20485;-43
2021/05/01 07:23:16;;;;;;;14.27;13.47;;;25.10;68.40;;;;;;3624561;39;20228;-43
2021/05/01 07:25:44;;;;;;;13.00;12.20;;;25.00;68.30;;;;;;3624818;39;20477;-43
2021/05/01 07:28:20;;;;;;;14.73;13.73;;;25.10;68.40;;;;;;3623431;39;20490;-43
2021/05/01 07:30:53;;;;;;;14.40;13.60;;;25.10;68.30;;;;;;3623031;39;20503;-43
2021/05/01 07:33:25;;;;;;;14.48;13.68;;;25.00;68.30;;;;;;3624391;39;20711;-43
2021/05/01 07:35:58;;;;;;;13.93;13.13;;;25.10;68.40;;;;;;3624054;39;20520;-43
2021/05/01 07:38:27;;;;;;;13.77;12.77;;;25.00;68.30;;;;;;3626498;39;20485;-43
2021/05/01 07:41:01;;;;;;;13.77;12.87;;;25.00;68.20;;;;;;3626639;39;20503;-43
2021/05/01 07:43:31;;;;;;;14.57;13.70;;;25.00;68.20;;;;;;3628620;39;20588;-43
2021/05/01 07:46:06;;;;;;;14.30;13.00;;;25.10;68.30;;;;;;3631334;39;20485;-43
2021/05/01 07:48:34;;;;;;;14.67;13.83;;;25.00;68.30;;;;;;3625095;39;20492;-43
2021/05/01 07:51:01;;;;;;;14.20;13.30;;;25.00;68.20;;;;;;3623986;39;20953;-43
2021/05/01 07:53:30;;;;;;;14.50;13.53;;;25.00;68.20;;;;;;3633302;39;20528;-43
2021/05/01 07:56:00;;;;;;;13.77;12.87;;;25.10;68.30;;;;;;3635756;39;20559;-44
2021/05/01 07:58:27;;;;;;;18.00;16.70;;;25.00;68.10;;;;;;3635111;39;20478;-44
2021/05/01 08:00:55;;;;;;;19.57;17.77;;;24.90;57.90;;;;;;3624691;39;20900;-43
2021/05/01 08:03:23;;;;;;;15.15;14.05;;;24.70;57.40;;;;;;3609564;39;21105;-43
2021/05/01 08:05:51;;;;;;;15.83;14.53;;;24.60;59.30;;;;;;3623462;39;20232;-44
2021/05/01 08:08:17;;;;;;;14.30;13.33;;;24.60;61.90;;;;;;3632061;39;20482;-43
2021/05/01 08:10:45;;;;;;;14.03;13.13;;;24.60;62.80;;;;;;3634191;39;20491;-43
2021/05/01 08:13:28;;;;;;;12.93;12.13;;;24.60;63.50;;;;;;3633957;39;20487;-43
2021/05/01 08:16:00;;;;;;;12.88;12.07;;;24.70;64.00;;;;;;3625466;39;20559;-43
2021/05/01 08:18:26;;;;;;;13.10;11.97;;;24.70;64.50;;;;;;3625317;39;20578;-43
2021/05/01 08:20:56;;;;;;;12.53;11.40;;;24.60;64.80;;;;;;3624554;39;20575;-43
2021/05/01 08:23:24;;;;;;;12.65;11.63;;;24.60;65.20;;;;;;3616172;39;20484;-43
2021/05/01 08:25:50;;;;;;;13.38;12.30;;;24.60;65.60;;;;;;3623762;39;20221;-43
2021/05/01 08:28:17;;;;;;;12.85;11.85;;;24.60;65.70;;;;;;3613905;39;20224;-43
2021/05/01 08:30:44;;;;;;;12.63;11.87;;;24.60;65.80;;;;;;3641427;39;20230;-43
2021/05/01 08:33:14;;;;;;;12.70;11.70;;;24.70;66.00;;;;;;3643553;39;21022;-43
2021/05/01 08:35:42;;;;;;;12.70;11.90;;;24.70;66.10;;;;;;3634542;39;20499;-43
2021/05/01 08:38:10;;;;;;;13.70;12.80;;;24.70;66.20;;;;;;3636141;39;20495;-43
2021/05/01 08:40:37;;;;;;;12.43;11.33;;;24.70;66.30;;;;;;3644606;39;20486;-43
2021/05/01 08:43:09;;;;;;;13.03;12.03;;;24.70;66.40;;;;;;3644904;39;20725;-43
2021/05/01 08:45:35;;;;;;;12.03;11.23;;;24.70;66.50;;;;;;3644765;39;20498;-43
2021/05/01 08:48:03;;;;;;;13.33;12.43;;;24.70;66.60;;;;;;3645127;39;20481;-43
2021/05/01 08:50:49;;;;;;;13.30;12.40;;;24.70;66.80;;;;;;3644504;39;20475;-43
2021/05/01 08:53:16;;;;;;;12.40;11.50;;;24.70;66.90;;;;;;3635334;39;20484;-43
2021/05/01 08:55:43;;;;;;;12.33;11.43;;;24.70;67.00;;;;;;3634277;39;20481;-43
2021/05/01 08:58:11;;;;;;;12.70;11.60;;;24.70;67.10;;;;;;3633647;39;20488;-43
2021/05/01 09:00:42;;;;;;;13.02;12.27;;;24.70;67.10;;;;;;3643912;39;20475;-43
2021/05/01 09:03:12;;;;;;;11.53;10.93;;;24.70;67.20;;;;;;3644941;39;20222;-43
2021/05/01 09:05:40;;;;;;;11.77;11.03;;;24.70;67.20;;;;;;3644952;39;20894;-43
2021/05/01 09:08:10;;;;;;;11.53;10.83;;;24.70;67.20;;;;;;3643418;39;20482;-43
2021/05/01 09:10:42;;;;;;;14.20;12.83;;;24.70;67.30;;;;;;3635174;39;20571;-43
2021/05/01 09:13:15;;;;;;;12.20;11.40;;;24.70;67.40;;;;;;3645351;39;20474;-43
2021/05/01 09:15:54;;;;;;;13.03;12.03;;;24.70;67.50;;;;;;3645469;39;20672;-43
2021/05/01 09:18:27;;;;;;;12.00;11.27;;;24.60;67.40;;;;;;3644497;39;20470;-43
2021/05/01 09:20:56;;;;;;;12.50;11.60;;;24.60;67.50;;;;;;3635105;39;20938;-43
2021/05/01 09:23:37;;;;;;;13.00;12.10;;;24.70;67.70;;;;;;3633519;39;20276;-43
2021/05/01 09:26:03;;;;;;;12.50;11.70;;;24.60;67.60;;;;;;3634651;39;20226;-43
2021/05/01 09:28:43;;;;;;;12.00;11.40;;;24.60;67.50;;;;;;3633597;39;21127;-44
2021/05/01 09:31:11;;;;;;;12.30;11.37;;;24.60;67.50;;;;;;3633757;39;20527;-43
2021/05/01 09:33:42;;;;;;;12.50;11.83;;;24.70;67.80;;;;;;3633554;39;20481;-43
2021/05/01 09:36:15;;;;;;;13.23;11.50;;;24.60;67.70;;;;;;3634527;39;20488;-43
2021/05/01 09:38:46;;;;;;;11.47;10.60;;;24.60;67.90;;;;;;3633511;39;20474;-43
2021/05/01 09:41:17;;;;;;;12.60;11.80;;;24.60;68.00;;;;;;3633726;39;20722;-43
2021/05/01 09:44:11;;;;;;;12.83;12.03;;;24.60;68.10;;;;;;3633633;39;20241;-43
2021/05/01 09:46:48;;;;;;;12.37;11.67;;;24.60;68.20;;;;;;3608436;39;20475;-43
2021/05/01 09:49:20;;;;;;;12.50;11.70;;;24.60;68.30;;;;;;3643082;39;20573;-43
2021/05/01 09:51:55;;;;;;;11.60;10.90;;;24.60;68.30;;;;;;3633873;39;20234;-44
2021/05/01 09:54:26;;;;;;;13.37;12.17;;;24.60;68.40;;;;;;3636688;39;20484;-44
2021/05/01 09:56:54;;;;;;;12.20;11.40;;;24.60;68.40;;;;;;3634000;39;20539;-44
2021/05/01 09:59:36;;;;;;;12.20;11.10;;;24.60;68.60;;;;;;3634783;39;20611;-44
2021/05/01 10:02:03;;;;;;;11.23;10.63;;;24.60;68.50;;;;;;3633022;39;20928;-44
2021/05/01 10:04:31;;;;;;;11.50;10.80;;;24.60;68.50;;;;;;3632793;39;20485;-44
2021/05/01 10:07:00;;;;;;;12.70;11.70;;;24.70;68.60;;;;;;3633945;39;20476;-44
2021/05/01 10:09:32;;;;;;;11.67;10.70;;;24.70;68.50;;;;;;3633794;39;20573;-43
2021/05/01 10:12:10;;;;;;;12.10;11.20;;;24.70;68.60;;;;;;3630931;39;20580;-43
2021/05/01 10:14:45;;;;;;;11.57;10.63;;;24.70;68.80;;;;;;3633586;39;20486;-43
2021/05/01 10:17:14;;;;;;;12.17;10.97;;;24.70;68.80;;;;;;3634736;39;20470;-44
2021/05/01 10:20:06;;;;;;;11.00;10.30;;;24.60;68.70;;;;;;3633658;39;20878;-43
2021/05/01 10:22:36;;;;;;;11.47;10.77;;;24.70;68.90;;;;;;3625732;39;20460;-42
2021/05/01 10:25:09;;;;;;;11.60;10.80;;;24.70;68.70;;;;;;3618269;39;20515;-43
2021/05/01 10:27:50;;;;;;;16.05;10.95;;;24.80;68.80;;;;;;3629507;39;20261;-42
2021/05/01 10:30:28;;;;;;;12.50;11.60;;;24.80;68.70;;;;;;3627847;39;20627;-43
2021/05/01 10:33:08;;;;;;;12.80;11.85;;;24.80;68.60;;;;;;3627031;39;20497;-43
2021/05/01 10:35:37;;;;;;;12.47;11.43;;;24.80;68.60;;;;;;3636190;39;20750;-43
2021/05/01 10:38:11;;;;;;;12.38;11.52;;;24.80;68.60;;;;;;3623863;39;20569;-44
2021/05/01 10:40:47;;;;;;;11.50;10.60;;;24.80;68.60;;;;;;3621892;39;20216;-43
2021/05/01 10:43:17;;;;;;;10.87;10.27;;;24.80;68.70;;;;;;3612133;39;20561;-43
2021/05/01 10:45:49;;;;;;;11.87;10.90;;;24.80;68.90;;;;;;3621281;39;20487;-41
2021/05/01 10:48:16;;;;;;;11.90;10.77;;;24.80;68.80;;;;;;3621424;39;20557;-41
2021/05/01 10:50:43;;;;;;;11.50;10.83;;;24.80;68.80;;;;;;3622617;39;20472;-41
2021/05/01 10:53:19;;;;;;;11.93;11.27;;;24.80;68.80;;;;;;3632202;39;20479;-41
2021/05/01 10:55:54;;;;;;;12.07;11.27;;;24.80;68.80;;;;;;3632707;39;20520;-41
2021/05/01 10:58:42;;;;;;;11.43;10.63;;;24.80;68.70;;;;;;3632533;39;20495;-41
2021/05/01 11:01:11;;;;;;;11.23;10.63;;;24.80;68.80;;;;;;3625544;39;20475;-41
2021/05/01 11:03:43;;;;;;;11.27;10.67;;;24.70;68.80;;;;;;3619692;39;20486;-41
2021/05/01 11:06:19;;;;;;;12.60;11.50;;;24.70;68.90;;;;;;3632725;39;20952;-41
2021/05/01 11:08:54;;;;;;;12.13;11.02;;;24.70;69.00;;;;;;3632253;39;20835;-44
2021/05/01 11:11:28;;;;;;;11.57;10.87;;;24.70;69.30;;;;;;3631987;39;20232;-43
2021/05/01 11:13:56;;;;;;;12.23;11.43;;;24.60;69.40;;;;;;3631868;39;20485;-43
2021/05/01 11:16:32;;;;;;;14.60;13.03;;;24.50;69.40;;;;;;3633983;39;20502;-43
2021/05/01 11:19:00;;;;;;;13.32;12.52;;;24.50;69.60;;;;;;3632921;39;20505;-44
2021/05/01 11:21:32;;;;;;;23.00;21.03;;;24.40;69.70;;;;;;3632533;39;20222;-44
2021/05/01 11:24:05;;;;;;;30.97;28.07;;;24.40;70.10;;;;;;3631947;39;20491;-43
2021/05/01 11:26:42;;;;;;;34.10;30.80;;;24.40;70.40;;;;;;3630687;39;20481;-43
2021/05/01 11:29:20;;;;;;;34.40;31.57;;;24.40;70.70;;;;;;3632409;39;20561;-43
2021/05/01 11:31:48;;;;;;;33.27;30.50;;;24.40;71.00;;;;;;3631818;39;20467;-43
2021/05/01 11:34:16;;;;;;;33.70;30.77;;;24.40;71.20;;;;;;3631179;39;20898;-44
2021/05/01 11:36:47;;;;;;;34.67;31.67;;;24.50;71.50;;;;;;3623338;39;20494;-43
2021/05/01 11:39:16;;;;;;;35.00;31.83;;;24.50;71.50;;;;;;3633130;39;20502;-43
2021/05/01 11:41:46;;;;;;;35.40;32.20;;;24.50;71.50;;;;;;3623759;39;20475;-44
2021/05/01 11:44:16;;;;;;;34.87;31.80;;;24.50;71.60;;;;;;3633108;39;20480;-43
2021/05/01 11:46:52;;;;;;;33.27;30.27;;;24.50;71.70;;;;;;3632066;39;20560;-43
2021/05/01 11:49:25;;;;;;;34.13;31.30;;;24.40;71.60;;;;;;3630168;39;20490;-43
2021/05/01 11:52:16;;;;;;;35.23;32.27;;;24.40;71.60;;;;;;3622092;39;20492;-44
2021/05/01 11:55:13;;;;;;;34.47;30.93;;;24.40;71.80;;;;;;3622172;39;20493;-44
2021/05/01 11:57:46;;;;;;;34.40;31.30;;;24.40;72.00;;;;;;3623050;39;20492;-43
2021/05/01 12:00:27;;;;;;;32.17;29.67;;;24.40;72.20;;;;;;3622635;39;20802;-43
2021/05/01 12:02:55;;;;;;;31.23;28.70;;;24.40;72.30;;;;;;3621827;39;20483;-44
2021/05/01 12:05:24;;;;;;;31.87;28.97;;;24.40;72.40;;;;;;3627974;39;20948;-43
2021/05/01 12:07:57;;;;;;;32.07;29.40;;;24.40;72.50;;;;;;3634801;39;20482;-43
2021/05/01 12:10:25;;;;;;;31.40;28.43;;;24.40;72.50;;;;;;3636292;39;20500;-43
2021/05/01 12:12:59;;;;;;;32.00;28.93;;;24.40;72.50;;;;;;3630917;39;20479;-44
2021/05/01 12:15:32;;;;;;;30.00;27.57;;;24.40;72.60;;;;;;3623504;39;20928;-44
2021/05/01 12:17:59;;;;;;;29.40;26.70;;;24.40;72.70;;;;;;3621204;39;20500;-44
2021/05/01 12:20:29;;;;;;;28.50;26.07;;;24.30;72.60;;;;;;3621492;39;20485;-44
2021/05/01 12:23:05;;;;;;;29.97;27.60;;;24.30;72.60;;;;;;3621024;39;20482;-44
2021/05/01 12:25:45;;;;;;;29.40;26.93;;;24.30;72.70;;;;;;3623735;39;20481;-44
2021/05/01 12:28:34;;;;;;;29.33;26.92;;;24.30;72.70;;;;;;3623098;39;20913;-44
2021/05/01 12:31:06;;;;;;;30.02;27.23;;;24.30;72.80;;;;;;3622974;39;20257;-43
2021/05/01 12:33:52;;;;;;;29.67;27.37;;;24.30;72.80;;;;;;3625430;39;20492;-43
2021/05/01 12:36:29;;;;;;;30.87;27.30;;;24.30;72.70;;;;;;3626833;39;20975;-42
2021/05/01 12:38:58;;;;;;;27.50;24.80;;;24.30;72.60;;;;;;3627379;39;20781;-43
2021/05/01 12:41:30;;;;;;;27.80;25.60;;;24.30;72.60;;;;;;3625228;39;21023;-42
2021/05/01 12:44:01;;;;;;;28.42;26.13;;;24.30;72.70;;;;;;3630487;39;20477;-43